Nearby METAR Reports

 

KEWB - New Bedford, Massachusetts, USA
Distance from station: ESE 9mi, 15km
Updated: Sun, 19-Sep-2021 4:17am EDT
Partly cloudy
Partly cloudy
 Wind from N
Wind: N 3 mph , 6 km/h
Temperature: 66°F , 19°C
Dew Point: 64°F , 18°C
Humidity: 94%
Barometer: 30.00 inHg , 1015.9 hPa
Clouds: Partly cloudy
Visibility: 10 miles , 16 km
Cloud details: Partly cloudy 400 ft
2021/09/19 08:17 KEWB 190817Z AUTO 35003KT 10SM SCT004 19/18 A3000 RMK AO2 T01890183
KTAN - Taunton, Massachusetts, USA
Distance from station: NNE 11mi, 18km
Updated: Sun, 19-Sep-2021 4:11am EDT
Mostly cloudy
Mostly cloudy
 Wind from N
Wind: N 6 mph , 9 km/h
Temperature: 66°F , 19°C
Dew Point: 64°F , 18°C
Humidity: 94%
Barometer: 30.01 inHg , 1016.3 hPa
Clouds: Mostly cloudy
Visibility: 10 miles , 16 km
Cloud details: Mostly cloudy 1700 ft
Mostly cloudy 2200 ft
Mostly cloudy 7500 ft
2021/09/19 08:11 KTAN 190811Z AUTO 36005KT 10SM BKN017 BKN022 BKN075 19/18 A3001 RMK AO2 T01890178
 
KPVD - Providence/Green, Rhode Island, USA
Distance from station: W 16mi, 26km
Updated: Sun, 19-Sep-2021 4:10am EDT
Partly cloudy
Partly cloudy
 Wind from N
Wind: N 10 mph , 17 km/h
Temperature: 68°F , 20°C
Dew Point: 64°F , 18°C
Humidity: 88%
Barometer: 30.02 inHg , 1016.6 hPa
Clouds: Partly cloudy
Visibility: 10 miles , 16 km
Cloud details: Partly cloudy 900 ft
2021/09/19 08:10 KPVD 190810Z AUTO 01009KT 10SM SCT009 20/18 A3002 RMK AO2 T02000183
KUUU - Newport, Rhode Island, USA
Distance from station: SSW 16mi, 27km
Updated: Sun, 19-Sep-2021 4:19am EDT
Overcast
Overcast
 Wind from N
Wind: N 10 mph , 17 km/h
Temperature: 66°F , 19°C
Dew Point: 64°F , 18°C
Humidity: 94%
Barometer: 30.01 inHg , 1016.3 hPa
Clouds: Overcast
Visibility: 9 miles , 14 km
Cloud details: Mostly cloudy 500 ft
Overcast 900 ft
2021/09/19 08:19 KUUU 190819Z AUTO 36009KT 9SM BKN005 OVC009 19/18 A3001 RMK AO2 CIG 003V008 T01890183
 
KOQU - N. Kingston/Quon, Rhode Island, USA
Distance from station: WSW 18mi, 29km
Updated: Sat, 18-Sep-2021 4:50pm EDT
NOT Current
Few Clouds
Few Clouds
 Wind from ENE
Wind: ENE 9 mph , 15 km/h
Temperature: 75°F , 24°C
Dew Point: 66°F , 19°C
Humidity: 74%
Barometer: 29.96 inHg , 1014.6 hPa
Clouds: Few Clouds
Visibility: 10 miles , 16 km
Cloud details: Few Clouds 2500 ft
2021/09/18 20:50 KOQU 182050Z 06008KT 10SM FEW025 24/19 A2996 RMK LAST
KPYM - Plymouth, Massachusetts, USA
Distance from station: ENE 23mi, 37km
Updated: Sun, 19-Sep-2021 3:59am EDT
Overcast
Overcast
 Wind from N
Wind: N 8 mph , 13 km/h
Temperature: 66°F , 19°C
Dew Point: 64°F , 18°C
Humidity: 94%
Barometer: 30.00 inHg , 1015.9 hPa
Clouds: Overcast
Visibility: 10 miles , 16 km
Cloud details: Few Clouds 800 ft
Mostly cloudy 1300 ft
Overcast 11000 ft
2021/09/19 07:59 KPYM 190759Z AUTO 35007KT 10SM FEW008 BKN013 OVC110 19/18 A3000 RMK AO2 T01890178
 
KSFZ - Pawtucket, Rhode Island, USA
Distance from station: WNW 23mi, 38km
Updated: Sun, 19-Sep-2021 4:14am EDT
Partly cloudy
Partly cloudy
 Wind from NNE
Wind: NNE 7 mph , 11 km/h
Temperature: 64°F , 18°C
Dew Point: 64°F , 18°C
Humidity: 100%
Barometer: 30.04 inHg , 1017.3 hPa
Clouds: Partly cloudy
Visibility: 10 miles , 16 km
Cloud details: Partly cloudy 500 ft
Partly cloudy 4900 ft
2021/09/19 08:14 KSFZ 190814Z AUTO 02006KT 10SM SCT005 SCT049 18/18 A3004 RMK AO2 PNO $
KOWD - Norwood, Massachusetts, USA
Distance from station: N 31mi, 50km
Updated: Sun, 19-Sep-2021 4:09am EDT
Light rain, Overcast
Light rain, Overcast
 Wind from NE
Wind: NE 7 mph , 11 km/h
Temperature: 66°F , 19°C
Dew Point: 64°F , 18°C
Humidity: 94%
Barometer: 30.03 inHg , 1016.9 hPa
Summary: Light rain
Clouds: Overcast
Visibility: 10 miles , 16 km
Cloud details: Partly cloudy 800 ft
Mostly cloudy 1800 ft
Overcast 2800 ft
2021/09/19 08:09 KOWD 190809Z AUTO 05006KT 10SM -RA SCT008 BKN018 OVC028 19/18 A3003 RMK AO2 P0002 T01890178
 
KFMH - Falmouth/Otis Ab, Massachusetts, USA
Distance from station: ESE 32mi, 51km
Updated: Sun, 19-Sep-2021 3:55am EDT
Mostly cloudy
Mostly cloudy
 Wind from N
Wind: N 8 mph , 13 km/h
Temperature: 64°F , 18°C
Dew Point: 64°F , 18°C
Humidity: 100%
Barometer: 29.99 inHg , 1015.6 hPa
Clouds: Mostly cloudy
Visibility: 10 miles , 16 km
Cloud details: Few Clouds 1300 ft
Mostly cloudy 2600 ft
Mostly cloudy 3200 ft
2021/09/19 07:55 KFMH 190755Z 35007KT 10SM FEW013 BKN026 BKN032 18/18 A2999
KMQE - East Milton, Massachusetts, USA
Distance from station: N 33mi, 53km
Updated: Thu, 01-Jul-2021 9:51am EDT
NOT Current

 Wind from WNW
Wind: WNW 9 mph , 15 km/h
Temperature: 75°F , 24°C
Dew Point: 70°F , 21°C
Humidity: 83%
Barometer: 29.86 inHg , 1011.2 hPa
2021/07/01 13:51 KMQE 011351Z AUTO 30008KT 24/21 A2986 RMK AO1 SLP116 T02440206
 
KGHG - Marshfield, Massachusetts, USA
Distance from station: NE 34mi, 55km
Updated: Sun, 19-Sep-2021 4:15am EDT
Overcast
Overcast
 Wind from N
Wind: N 9 mph , 15 km/h, Gust: 17 mph , 28 km/h
Temperature: 64°F , 18°C
Dew Point: 61°F , 16°C
Humidity: 88%
Barometer: 30.01 inHg , 1016.3 hPa
Clouds: Overcast
Visibility: 10 miles , 16 km
Cloud details: Partly cloudy 3300 ft
Overcast 6000 ft
2021/09/19 08:15 KGHG 190815Z AUTO 01008G15KT 330V060 10SM SCT033 OVC060 18/16 A3001 RMK AO2
KMVY - Marthas Vineyard, Massachusetts, USA
Distance from station: SE 35mi, 56km
Updated: Sun, 19-Sep-2021 3:53am EDT
Mostly cloudy
Mostly cloudy
 Wind from N
Wind: N 8 mph , 13 km/h
Temperature: 66°F , 19°C
Dew Point: 66°F , 19°C
Humidity: 100%
Barometer: 29.99 inHg , 1015.6 hPa
Clouds: Mostly cloudy
Visibility: 10 miles , 16 km
Cloud details: Few Clouds 2400 ft
Mostly cloudy 7500 ft
2021/09/19 07:53 KMVY 190753Z AUTO 35007KT 10SM FEW024 BKN075 19/19 A2999 RMK AO2 SLP153 T01890189
 
KBOS - Boston, Massachusetts, USA
Distance from station: N 44mi, 71km
Updated: Sun, 19-Sep-2021 3:54am EDT
Overcast
Overcast
 Wind from N
Wind: N 8 mph , 13 km/h
Temperature: 68°F , 20°C
Dew Point: 63°F , 17°C
Humidity: 83%
Barometer: 30.02 inHg , 1016.6 hPa
Clouds: Overcast
Visibility: 10 miles , 16 km
Cloud details: Partly cloudy 2100 ft
Overcast 3300 ft
2021/09/19 07:54 KBOS 190754Z 01007KT 10SM SCT021 OVC033 20/17 A3002 RMK AO2 RAE43 SLP166 P0010 T02000172
KHYA - Hyannis, Massachusetts, USA
Distance from station: E 44mi, 71km
Updated: Sun, 19-Sep-2021 4:19am EDT
Overcast
Overcast
 Wind from N
Wind: N 14 mph , 22 km/h, Gust: 21 mph , 33 km/h
Temperature: 66°F , 19°C
Dew Point: 64°F , 18°C
Humidity: 94%
Barometer: 29.97 inHg , 1014.9 hPa
Clouds: Overcast
Visibility: 10 miles , 16 km
Cloud details: Mostly cloudy 1200 ft
Overcast 2200 ft
2021/09/19 08:19 KHYA 190819Z AUTO 36012G18KT 10SM BKN012 OVC022 19/18 A2997 RMK AO2 T01940183 $
 
KWST - Westerly, Rhode Island, USA
Distance from station: SW 44mi, 71km
Updated: Sun, 19-Sep-2021 3:53am EDT
Clear
Clear
 Wind from NNW
Wind: NNW 6 mph , 9 km/h
Temperature: 64°F , 18°C
Dew Point: 64°F , 18°C
Humidity: 100%
Barometer: 30.01 inHg , 1016.3 hPa
Clouds: Clear
Visibility: 10 miles , 16 km
2021/09/19 07:53 KWST 190753Z AUTO 34005KT 10SM CLR 18/18 A3001 RMK AO2 SLP161 T01780178
KBID - Block Island, Rhode Island, USA
Distance from station: SSW 46mi, 74km
Updated: Sun, 19-Sep-2021 4:10am EDT
Overcast
Overcast
 Wind from N
Wind: N 8 mph , 13 km/h
Temperature: 66°F , 19°C
Dew Point: 64°F , 18°C
Humidity: 94%
Barometer: 30.01 inHg , 1016.3 hPa
Clouds: Overcast
Visibility: 10 miles , 16 km
Cloud details: Mostly cloudy 900 ft
Overcast 1200 ft
2021/09/19 08:10 KBID 190810Z AUTO 01007KT 10SM BKN009 OVC012 19/18 A3001 RMK AO2 CIG 007V011